sensor_id;sensor_type;location;lat;lon;timestamp;temperature;humidity
19363;DHT22;9817;50.80926400;5.16316200;2023-02-01T00:00:04;7.60;99.90
19363;DHT22;9817;50.80926400;5.16316200;2023-02-01T00:02:30;7.70;99.90
19363;DHT22;9817;50.80926400;5.16316200;2023-02-01T00:04:56;7.70;99.90
19363;DHT22;9817;50.80926400;5.16316200;2023-02-01T00:07:21;7.80;99.90
19363;DHT22;9817;50.80926400;5.16316200;2023-02-01T00:09:47;7.70;99.90
19363;DHT22;9817;50.80926400;5.16316200;2023-02-01T00:12:12;7.70;99.90
19363;DHT22;9817;50.80926400;5.16316200;2023-02-01T00:14:38;7.80;99.90
19363;DHT22;9817;50.80926400;5.16316200;2023-02-01T00:17:08;7.80;99.90
19363;DHT22;9817;50.80926400;5.16316200;2023-02-01T00:19:34;7.80;99.90
19363;DHT22;9817;50.80926400;5.16316200;2023-02-01T00:22:00;7.70;99.90
19363;DHT22;9817;50.80926400;5.16316200;2023-02-01T00:24:26;7.60;99.90
19363;DHT22;9817;50.80926400;5.16316200;2023-02-01T00:26:51;7.50;99.90
19363;DHT22;9817;50.80926400;5.16316200;2023-02-01T00:29:18;7.60;99.90
19363;DHT22;9817;50.80926400;5.16316200;2023-02-01T00:31:45;7.70;99.90
19363;DHT22;9817;50.80926400;5.16316200;2023-02-01T00:34:15;7.70;99.90
19363;DHT22;9817;50.80926400;5.16316200;2023-02-01T00:36:42;7.70;99.90
19363;DHT22;9817;50.80926400;5.16316200;2023-02-01T00:39:09;7.70;99.90
19363;DHT22;9817;50.80926400;5.16316200;2023-02-01T00:41:35;7.80;99.90
19363;DHT22;9817;50.80926400;5.16316200;2023-02-01T00:44:01;7.80;99.90
19363;DHT22;9817;50.80926400;5.16316200;2023-02-01T00:46:27;7.80;99.90
19363;DHT22;9817;50.80926400;5.16316200;2023-02-01T00:48:52;7.80;99.90
19363;DHT22;9817;50.80926400;5.16316200;2023-02-01T00:51:20;7.80;99.90
19363;DHT22;9817;50.80926400;5.16316200;2023-02-01T00:53:46;7.70;99.90
19363;DHT22;9817;50.80926400;5.16316200;2023-02-01T00:56:12;7.70;99.90
19363;DHT22;9817;50.80926400;5.16316200;2023-02-01T00:58:38;7.80;99.90
19363;DHT22;9817;50.80926400;5.16316200;2023-02-01T01:03:42;7.90;99.90
19363;DHT22;9817;50.80926400;5.16316200;2023-02-01T01:06:10;7.80;99.90
19363;DHT22;9817;50.80926400;5.16316200;2023-02-01T01:08:37;7.80;99.90
19363;DHT22;9817;50.80926400;5.16316200;2023-02-01T01:11:17;7.70;99.90
19363;DHT22;9817;50.80926400;5.16316200;2023-02-01T01:13:46;7.80;99.90
19363;DHT22;9817;50.80926400;5.16316200;2023-02-01T01:16:12;7.90;99.90
19363;DHT22;9817;50.80926400;5.16316200;2023-02-01T01:18:38;7.80;99.90
19363;DHT22;9817;50.80926400;5.16316200;2023-02-01T01:21:05;7.90;99.90
19363;DHT22;9817;50.80926400;5.16316200;2023-02-01T01:23:31;7.80;99.90
19363;DHT22;9817;50.80926400;5.16316200;2023-02-01T01:25:56;7.90;99.90
19363;DHT22;9817;50.80926400;5.16316200;2023-02-01T01:28:22;7.90;99.90
19363;DHT22;9817;50.80926400;5.16316200;2023-02-01T01:30:47;7.80;99.90
19363;DHT22;9817;50.80926400;5.16316200;2023-02-01T01:33:13;7.80;99.90
19363;DHT22;9817;50.80926400;5.16316200;2023-02-01T01:35:39;7.80;99.90
19363;DHT22;9817;50.80926400;5.16316200;2023-02-01T01:38:05;7.70;99.90
19363;DHT22;9817;50.80926400;5.16316200;2023-02-01T01:40:31;7.90;99.90
19363;DHT22;9817;50.80926400;5.16316200;2023-02-01T01:42:59;8.00;99.90
19363;DHT22;9817;50.80926400;5.16316200;2023-02-01T01:45:31;7.90;99.90
19363;DHT22;9817;50.80926400;5.16316200;2023-02-01T01:48:11;7.80;99.90
19363;DHT22;9817;50.80926400;5.16316200;2023-02-01T01:50:51;7.70;99.90
19363;DHT22;9817;50.80926400;5.16316200;2023-02-01T01:53:27;7.80;99.90
19363;DHT22;9817;50.80926400;5.16316200;2023-02-01T01:55:54;7.80;99.90
19363;DHT22;9817;50.80926400;5.16316200;2023-02-01T01:58:24;7.80;99.90
19363;DHT22;9817;50.80926400;5.16316200;2023-02-01T02:00:52;7.70;99.90
19363;DHT22;9817;50.80926400;5.16316200;2023-02-01T02:03:27;7.70;99.90
19363;DHT22;9817;50.80926400;5.16316200;2023-02-01T02:05:57;7.70;99.90
19363;DHT22;9817;50.80926400;5.16316200;2023-02-01T02:08:27;7.70;99.90
19363;DHT22;9817;50.80926400;5.16316200;2023-02-01T02:10:53;7.80;99.90
19363;DHT22;9817;50.80926400;5.16316200;2023-02-01T02:13:38;7.80;99.90
19363;DHT22;9817;50.80926400;5.16316200;2023-02-01T02:16:19;7.90;99.90
19363;DHT22;9817;50.80926400;5.16316200;2023-02-01T02:28:02;8.10;99.90
19363;DHT22;9817;50.80926400;5.16316200;2023-02-01T02:42:12;7.80;99.90
19363;DHT22;9817;50.80926400;5.16316200;2023-02-01T02:50:35;7.80;99.90
19363;DHT22;9817;50.80926400;5.16316200;2023-02-01T02:53:26;8.00;99.90
19363;DHT22;9817;50.80926400;5.16316200;2023-02-01T02:56:12;7.80;99.90
19363;DHT22;9817;50.80926400;5.16316200;2023-02-01T02:58:58;7.90;99.90
19363;DHT22;9817;50.80926400;5.16316200;2023-02-01T03:01:42;7.90;99.90
19363;DHT22;9817;50.80926400;5.16316200;2023-02-01T03:04:26;7.80;99.90
19363;DHT22;9817;50.80926400;5.16316200;2023-02-01T03:06:53;7.70;99.90
19363;DHT22;9817;50.80926400;5.16316200;2023-02-01T03:09:31;7.60;99.90
19363;DHT22;9817;50.80926400;5.16316200;2023-02-01T03:12:04;7.60;99.90
19363;DHT22;9817;50.80926400;5.16316200;2023-02-01T03:14:54;7.70;99.90
19363;DHT22;9817;50.80926400;5.16316200;2023-02-01T03:17:29;7.70;99.90
19363;DHT22;9817;50.80926400;5.16316200;2023-02-01T03:20:01;7.60;99.90
19363;DHT22;9817;50.80926400;5.16316200;2023-02-01T03:22:29;7.60;99.90
19363;DHT22;9817;50.80926400;5.16316200;2023-02-01T03:25:12;7.50;99.90
19363;DHT22;9817;50.80926400;5.16316200;2023-02-01T03:30:20;7.30;99.90
19363;DHT22;9817;50.80926400;5.16316200;2023-02-01T03:32:49;7.30;99.90
19363;DHT22;9817;50.80926400;5.16316200;2023-02-01T03:38:34;7.20;99.90
19363;DHT22;9817;50.80926400;5.16316200;2023-02-01T03:41:23;7.10;99.90
19363;DHT22;9817;50.80926400;5.16316200;2023-02-01T03:46:51;7.10;99.90
19363;DHT22;9817;50.80926400;5.16316200;2023-02-01T03:49:28;7.00;99.90
19363;DHT22;9817;50.80926400;5.16316200;2023-02-01T03:51:58;7.00;99.90
19363;DHT22;9817;50.80926400;5.16316200;2023-02-01T03:54:25;6.90;99.90
19363;DHT22;9817;50.80926400;5.16316200;2023-02-01T03:56:52;6.80;99.90
19363;DHT22;9817;50.80926400;5.16316200;2023-02-01T03:59:19;6.90;99.90
19363;DHT22;9817;50.80926400;5.16316200;2023-02-01T04:01:45;6.80;99.90
19363;DHT22;9817;50.80926400;5.16316200;2023-02-01T04:04:10;6.80;99.90
19363;DHT22;9817;50.80926400;5.16316200;2023-02-01T04:06:51;6.80;99.90
19363;DHT22;9817;50.80926400;5.16316200;2023-02-01T04:09:17;6.80;99.90
19363;DHT22;9817;50.80926400;5.16316200;2023-02-01T04:11:43;6.80;99.90
19363;DHT22;9817;50.80926400;5.16316200;2023-02-01T04:14:09;6.70;99.90
19363;DHT22;9817;50.80926400;5.16316200;2023-02-01T04:16:34;6.70;99.90
19363;DHT22;9817;50.80926400;5.16316200;2023-02-01T04:19:00;6.80;99.90
19363;DHT22;9817;50.80926400;5.16316200;2023-02-01T04:21:27;6.70;99.90
19363;DHT22;9817;50.80926400;5.16316200;2023-02-01T04:23:53;6.70;99.90
19363;DHT22;9817;50.80926400;5.16316200;2023-02-01T04:26:19;6.60;99.90
19363;DHT22;9817;50.80926400;5.16316200;2023-02-01T04:28:46;6.60;99.90
19363;DHT22;9817;50.80926400;5.16316200;2023-02-01T04:31:15;6.50;99.90
19363;DHT22;9817;50.80926400;5.16316200;2023-02-01T04:33:41;6.60;99.90
19363;DHT22;9817;50.80926400;5.16316200;2023-02-01T04:36:06;6.50;99.90
19363;DHT22;9817;50.80926400;5.16316200;2023-02-01T04:38:32;6.40;99.90
19363;DHT22;9817;50.80926400;5.16316200;2023-02-01T04:40:58;6.40;99.90
19363;DHT22;9817;50.80926400;5.16316200;2023-02-01T04:43:25;6.30;99.90
19363;DHT22;9817;50.80926400;5.16316200;2023-02-01T04:45:51;6.30;99.90
19363;DHT22;9817;50.80926400;5.16316200;2023-02-01T04:48:20;6.20;99.90
19363;DHT22;9817;50.80926400;5.16316200;2023-02-01T04:50:46;6.30;99.90
19363;DHT22;9817;50.80926400;5.16316200;2023-02-01T04:53:14;6.30;99.90
19363;DHT22;9817;50.80926400;5.16316200;2023-02-01T04:55:41;6.40;99.90
19363;DHT22;9817;50.80926400;5.16316200;2023-02-01T04:58:07;6.40;99.90
19363;DHT22;9817;50.80926400;5.16316200;2023-02-01T05:00:33;6.30;99.90
19363;DHT22;9817;50.80926400;5.16316200;2023-02-01T05:02:58;6.20;99.90
19363;DHT22;9817;50.80926400;5.16316200;2023-02-01T05:05:24;6.10;99.90
19363;DHT22;9817;50.80926400;5.16316200;2023-02-01T05:07:50;6.10;99.90
19363;DHT22;9817;50.80926400;5.16316200;2023-02-01T05:10:15;6.00;99.90
19363;DHT22;9817;50.80926400;5.16316200;2023-02-01T05:12:45;6.00;99.90
19363;DHT22;9817;50.80926400;5.16316200;2023-02-01T05:15:30;6.00;99.90
19363;DHT22;9817;50.80926400;5.16316200;2023-02-01T05:17:57;6.00;99.90
19363;DHT22;9817;50.80926400;5.16316200;2023-02-01T05:20:22;6.00;99.90
19363;DHT22;9817;50.80926400;5.16316200;2023-02-01T05:22:48;6.00;99.90
19363;DHT22;9817;50.80926400;5.16316200;2023-02-01T05:25:14;5.90;99.90
19363;DHT22;9817;50.80926400;5.16316200;2023-02-01T05:27:39;5.90;99.90
19363;DHT22;9817;50.80926400;5.16316200;2023-02-01T05:30:06;5.80;99.90
19363;DHT22;9817;50.80926400;5.16316200;2023-02-01T05:32:32;5.80;99.90
19363;DHT22;9817;50.80926400;5.16316200;2023-02-01T05:34:58;5.80;99.90
19363;DHT22;9817;50.80926400;5.16316200;2023-02-01T05:37:23;5.90;99.90
19363;DHT22;9817;50.80926400;5.16316200;2023-02-01T05:39:49;5.80;99.90
19363;DHT22;9817;50.80926400;5.16316200;2023-02-01T05:42:15;5.80;99.90
19363;DHT22;9817;50.80926400;5.16316200;2023-02-01T05:44:40;5.90;99.90
19363;DHT22;9817;50.80926400;5.16316200;2023-02-01T05:47:06;5.80;99.90
19363;DHT22;9817;50.80926400;5.16316200;2023-02-01T05:49:32;5.90;99.90
19363;DHT22;9817;50.80926400;5.16316200;2023-02-01T05:51:58;5.80;99.90
19363;DHT22;9817;50.80926400;5.16316200;2023-02-01T05:54:24;5.70;99.90
19363;DHT22;9817;50.80926400;5.16316200;2023-02-01T05:56:49;5.60;99.90
19363;DHT22;9817;50.80926400;5.16316200;2023-02-01T05:59:15;5.50;99.90
19363;DHT22;9817;50.80926400;5.16316200;2023-02-01T06:01:41;5.50;99.90
19363;DHT22;9817;50.80926400;5.16316200;2023-02-01T06:04:06;5.40;99.90
19363;DHT22;9817;50.80926400;5.16316200;2023-02-01T06:06:32;5.50;99.90
19363;DHT22;9817;50.80926400;5.16316200;2023-02-01T06:08:57;5.50;99.90
19363;DHT22;9817;50.80926400;5.16316200;2023-02-01T06:11:24;5.50;99.90
19363;DHT22;9817;50.80926400;5.16316200;2023-02-01T06:13:49;5.50;99.90
19363;DHT22;9817;50.80926400;5.16316200;2023-02-01T06:16:15;5.40;99.90
19363;DHT22;9817;50.80926400;5.16316200;2023-02-01T06:18:41;5.40;99.90
19363;DHT22;9817;50.80926400;5.16316200;2023-02-01T06:21:07;5.40;99.90
19363;DHT22;9817;50.80926400;5.16316200;2023-02-01T06:23:33;5.20;99.90
19363;DHT22;9817;50.80926400;5.16316200;2023-02-01T06:26:05;5.30;99.90
19363;DHT22;9817;50.80926400;5.16316200;2023-02-01T06:28:32;5.40;99.90
19363;DHT22;9817;50.80926400;5.16316200;2023-02-01T06:30:58;5.50;99.90
19363;DHT22;9817;50.80926400;5.16316200;2023-02-01T06:33:27;5.50;99.90
19363;DHT22;9817;50.80926400;5.16316200;2023-02-01T06:35:57;5.40;99.90
19363;DHT22;9817;50.80926400;5.16316200;2023-02-01T06:38:24;5.40;99.90
19363;DHT22;9817;50.80926400;5.16316200;2023-02-01T06:40:54;5.30;99.90
19363;DHT22;9817;50.80926400;5.16316200;2023-02-01T06:43:23;5.30;99.90
19363;DHT22;9817;50.80926400;5.16316200;2023-02-01T06:45:50;5.50;99.90
19363;DHT22;9817;50.80926400;5.16316200;2023-02-01T06:48:15;5.40;99.90
19363;DHT22;9817;50.80926400;5.16316200;2023-02-01T06:50:41;5.50;99.90
19363;DHT22;9817;50.80926400;5.16316200;2023-02-01T06:53:06;5.40;99.90
19363;DHT22;9817;50.80926400;5.16316200;2023-02-01T06:55:32;5.40;99.90
19363;DHT22;9817;50.80926400;5.16316200;2023-02-01T06:57:58;5.30;99.90
19363;DHT22;9817;50.80926400;5.16316200;2023-02-01T07:00:24;5.30;99.90
19363;DHT22;9817;50.80926400;5.16316200;2023-02-01T07:02:50;5.30;99.90
19363;DHT22;9817;50.80926400;5.16316200;2023-02-01T07:05:16;5.30;99.90
19363;DHT22;9817;50.80926400;5.16316200;2023-02-01T07:07:42;5.30;99.90
19363;DHT22;9817;50.80926400;5.16316200;2023-02-01T07:10:08;5.20;99.90
19363;DHT22;9817;50.80926400;5.16316200;2023-02-01T07:12:34;5.30;99.90
19363;DHT22;9817;50.80926400;5.16316200;2023-02-01T07:15:00;5.40;99.90
19363;DHT22;9817;50.80926400;5.16316200;2023-02-01T07:17:27;5.50;99.90
19363;DHT22;9817;50.80926400;5.16316200;2023-02-01T07:19:55;5.30;99.90
19363;DHT22;9817;50.80926400;5.16316200;2023-02-01T07:22:20;5.40;99.90
19363;DHT22;9817;50.80926400;5.16316200;2023-02-01T07:24:46;5.30;99.90
19363;DHT22;9817;50.80926400;5.16316200;2023-02-01T07:27:11;5.40;99.90
19363;DHT22;9817;50.80926400;5.16316200;2023-02-01T07:29:37;5.40;99.90
19363;DHT22;9817;50.80926400;5.16316200;2023-02-01T07:32:03;5.40;99.90
19363;DHT22;9817;50.80926400;5.16316200;2023-02-01T07:34:29;5.30;99.90
19363;DHT22;9817;50.80926400;5.16316200;2023-02-01T07:36:55;5.30;99.90
19363;DHT22;9817;50.80926400;5.16316200;2023-02-01T07:39:21;5.30;99.90
19363;DHT22;9817;50.80926400;5.16316200;2023-02-01T07:41:46;5.20;99.90
19363;DHT22;9817;50.80926400;5.16316200;2023-02-01T07:44:12;5.30;99.90
19363;DHT22;9817;50.80926400;5.16316200;2023-02-01T07:46:38;5.40;99.90
19363;DHT22;9817;50.80926400;5.16316200;2023-02-01T07:49:04;5.40;99.90
19363;DHT22;9817;50.80926400;5.16316200;2023-02-01T07:51:30;5.60;99.90
19363;DHT22;9817;50.80926400;5.16316200;2023-02-01T07:53:56;5.50;99.90
19363;DHT22;9817;50.80926400;5.16316200;2023-02-01T07:56:22;5.40;99.90
19363;DHT22;9817;50.80926400;5.16316200;2023-02-01T07:58:52;5.50;99.90
19363;DHT22;9817;50.80926400;5.16316200;2023-02-01T08:01:23;5.60;99.90
19363;DHT22;9817;50.80926400;5.16316200;2023-02-01T08:03:57;5.60;99.90
19363;DHT22;9817;50.80926400;5.16316200;2023-02-01T08:06:28;5.60;99.90
19363;DHT22;9817;50.80926400;5.16316200;2023-02-01T08:08:54;5.80;99.90
19363;DHT22;9817;50.80926400;5.16316200;2023-02-01T08:11:21;6.20;99.90
19363;DHT22;9817;50.80926400;5.16316200;2023-02-01T08:13:47;6.40;99.90
19363;DHT22;9817;50.80926400;5.16316200;2023-02-01T08:16:14;6.70;99.90
19363;DHT22;9817;50.80926400;5.16316200;2023-02-01T08:18:40;6.90;99.90
19363;DHT22;9817;50.80926400;5.16316200;2023-02-01T08:21:08;7.10;99.90
19363;DHT22;9817;50.80926400;5.16316200;2023-02-01T08:23:35;7.30;99.90
19363;DHT22;9817;50.80926400;5.16316200;2023-02-01T08:26:11;7.30;99.90
19363;DHT22;9817;50.80926400;5.16316200;2023-02-01T08:28:38;7.40;99.90
19363;DHT22;9817;50.80926400;5.16316200;2023-02-01T08:31:10;7.20;99.90
19363;DHT22;9817;50.80926400;5.16316200;2023-02-01T08:33:37;7.10;99.90
19363;DHT22;9817;50.80926400;5.16316200;2023-02-01T08:36:07;7.10;99.90
19363;DHT22;9817;50.80926400;5.16316200;2023-02-01T08:38:35;7.10;99.90
19363;DHT22;9817;50.80926400;5.16316200;2023-02-01T08:41:07;7.00;99.90
19363;DHT22;9817;50.80926400;5.16316200;2023-02-01T08:43:33;7.00;99.90
19363;DHT22;9817;50.80926400;5.16316200;2023-02-01T08:45:58;6.90;99.90
19363;DHT22;9817;50.80926400;5.16316200;2023-02-01T08:48:24;7.10;99.90
19363;DHT22;9817;50.80926400;5.16316200;2023-02-01T08:50:50;7.20;99.90
19363;DHT22;9817;50.80926400;5.16316200;2023-02-01T08:53:15;7.30;99.90
19363;DHT22;9817;50.80926400;5.16316200;2023-02-01T08:55:41;7.20;99.90
19363;DHT22;9817;50.80926400;5.16316200;2023-02-01T08:58:06;7.40;99.90
19363;DHT22;9817;50.80926400;5.16316200;2023-02-01T09:00:32;7.40;99.90
19363;DHT22;9817;50.80926400;5.16316200;2023-02-01T09:02:58;7.30;99.90
19363;DHT22;9817;50.80926400;5.16316200;2023-02-01T09:05:24;7.20;99.90
19363;DHT22;9817;50.80926400;5.16316200;2023-02-01T09:07:52;7.30;99.90
19363;DHT22;9817;50.80926400;5.16316200;2023-02-01T09:10:18;7.30;99.90
19363;DHT22;9817;50.80926400;5.16316200;2023-02-01T09:12:43;7.40;99.90
19363;DHT22;9817;50.80926400;5.16316200;2023-02-01T09:15:09;7.50;99.90
19363;DHT22;9817;50.80926400;5.16316200;2023-02-01T09:17:35;7.30;99.90
19363;DHT22;9817;50.80926400;5.16316200;2023-02-01T09:20:01;7.50;99.90
19363;DHT22;9817;50.80926400;5.16316200;2023-02-01T09:22:27;7.50;99.90
19363;DHT22;9817;50.80926400;5.16316200;2023-02-01T09:24:53;7.50;99.90
19363;DHT22;9817;50.80926400;5.16316200;2023-02-01T09:27:19;7.50;99.90
19363;DHT22;9817;50.80926400;5.16316200;2023-02-01T09:29:44;7.60;99.90
19363;DHT22;9817;50.80926400;5.16316200;2023-02-01T09:32:10;7.70;99.90
19363;DHT22;9817;50.80926400;5.16316200;2023-02-01T09:34:36;7.80;99.90
19363;DHT22;9817;50.80926400;5.16316200;2023-02-01T09:37:02;8.00;99.90
19363;DHT22;9817;50.80926400;5.16316200;2023-02-01T09:39:28;8.20;99.90
19363;DHT22;9817;50.80926400;5.16316200;2023-02-01T09:45:10;8.60;99.90
19363;DHT22;9817;50.80926400;5.16316200;2023-02-01T09:47:18;8.50;99.90
19363;DHT22;9817;50.80926400;5.16316200;2023-02-01T09:49:55;8.60;99.90
19363;DHT22;9817;50.80926400;5.16316200;2023-02-01T09:52:27;8.70;99.90
19363;DHT22;9817;50.80926400;5.16316200;2023-02-01T09:55:00;8.80;99.90
19363;DHT22;9817;50.80926400;5.16316200;2023-02-01T09:58:16;8.80;99.90
19363;DHT22;9817;50.80926400;5.16316200;2023-02-01T10:00:37;8.70;99.90
19363;DHT22;9817;50.80926400;5.16316200;2023-02-01T10:03:04;9.00;99.90
19363;DHT22;9817;50.80926400;5.16316200;2023-02-01T10:10:57;9.50;99.90
19363;DHT22;9817;50.80926400;5.16316200;2023-02-01T10:22:01;9.90;99.90
19363;DHT22;9817;50.80926400;5.16316200;2023-02-01T10:24:38;10.00;99.90
19363;DHT22;9817;50.80926400;5.16316200;2023-02-01T10:27:20;10.00;99.90
19363;DHT22;9817;50.80926400;5.16316200;2023-02-01T10:29:55;9.80;99.90
19363;DHT22;9817;50.80926400;5.16316200;2023-02-01T10:32:32;9.90;99.90
19363;DHT22;9817;50.80926400;5.16316200;2023-02-01T10:35:05;10.00;99.90
19363;DHT22;9817;50.80926400;5.16316200;2023-02-01T10:37:34;10.00;99.90
19363;DHT22;9817;50.80926400;5.16316200;2023-02-01T10:42:43;10.00;99.90
19363;DHT22;9817;50.80926400;5.16316200;2023-02-01T10:45:42;10.20;99.90
19363;DHT22;9817;50.80926400;5.16316200;2023-02-01T10:48:08;10.50;99.90
19363;DHT22;9817;50.80926400;5.16316200;2023-02-01T10:50:42;10.50;99.90
19363;DHT22;9817;50.80926400;5.16316200;2023-02-01T10:54:03;10.80;99.90
19363;DHT22;9817;50.80926400;5.16316200;2023-02-01T10:56:09;10.90;99.90
19363;DHT22;9817;50.80926400;5.16316200;2023-02-01T10:58:36;10.80;99.90
19363;DHT22;9817;50.80926400;5.16316200;2023-02-01T11:01:08;10.80;99.90
19363;DHT22;9817;50.80926400;5.16316200;2023-02-01T11:03:44;11.10;99.90
19363;DHT22;9817;50.80926400;5.16316200;2023-02-01T11:08:55;10.90;99.90
19363;DHT22;9817;50.80926400;5.16316200;2023-02-01T11:11:22;10.90;99.90
19363;DHT22;9817;50.80926400;5.16316200;2023-02-01T11:14:10;11.20;99.90
19363;DHT22;9817;50.80926400;5.16316200;2023-02-01T11:16:39;11.20;99.90
19363;DHT22;9817;50.80926400;5.16316200;2023-02-01T11:19:05;11.00;99.90
19363;DHT22;9817;50.80926400;5.16316200;2023-02-01T11:21:32;10.90;99.90
19363;DHT22;9817;50.80926400;5.16316200;2023-02-01T11:24:04;10.90;99.90
19363;DHT22;9817;50.80926400;5.16316200;2023-02-01T11:26:31;11.00;99.90
19363;DHT22;9817;50.80926400;5.16316200;2023-02-01T11:29:03;11.10;99.90
19363;DHT22;9817;50.80926400;5.16316200;2023-02-01T11:31:30;11.50;99.90
19363;DHT22;9817;50.80926400;5.16316200;2023-02-01T11:34:05;11.50;99.90
19363;DHT22;9817;50.80926400;5.16316200;2023-02-01T11:36:33;11.50;99.90
19363;DHT22;9817;50.80926400;5.16316200;2023-02-01T11:42:00;11.40;99.90
19363;DHT22;9817;50.80926400;5.16316200;2023-02-01T11:44:36;11.40;99.90
19363;DHT22;9817;50.80926400;5.16316200;2023-02-01T11:49:50;11.40;99.90
19363;DHT22;9817;50.80926400;5.16316200;2023-02-01T11:58:26;11.60;99.90
19363;DHT22;9817;50.80926400;5.16316200;2023-02-01T12:01:15;11.40;99.90
19363;DHT22;9817;50.80926400;5.16316200;2023-02-01T12:03:57;11.40;99.90
19363;DHT22;9817;50.80926400;5.16316200;2023-02-01T12:09:35;11.50;99.90
19363;DHT22;9817;50.80926400;5.16316200;2023-02-01T12:14:56;12.10;99.90
19363;DHT22;9817;50.80926400;5.16316200;2023-02-01T12:28:37;12.40;99.90
19363;DHT22;9817;50.80926400;5.16316200;2023-02-01T12:31:31;12.00;99.90
19363;DHT22;9817;50.80926400;5.16316200;2023-02-01T12:36:42;12.30;99.90
19363;DHT22;9817;50.80926400;5.16316200;2023-02-01T12:39:23;12.00;99.90
19363;DHT22;9817;50.80926400;5.16316200;2023-02-01T12:44:50;11.70;99.90
19363;DHT22;9817;50.80926400;5.16316200;2023-02-01T12:47:33;11.60;99.90
19363;DHT22;9817;50.80926400;5.16316200;2023-02-01T12:50:06;11.60;99.90
19363;DHT22;9817;50.80926400;5.16316200;2023-02-01T12:52:44;11.60;99.90
19363;DHT22;9817;50.80926400;5.16316200;2023-02-01T12:55:38;11.80;99.90
19363;DHT22;9817;50.80926400;5.16316200;2023-02-01T13:00:52;11.80;99.90
19363;DHT22;9817;50.80926400;5.16316200;2023-02-01T13:03:40;11.60;99.90
19363;DHT22;9817;50.80926400;5.16316200;2023-02-01T13:06:28;11.30;99.90
19363;DHT22;9817;50.80926400;5.16316200;2023-02-01T13:11:44;10.90;99.90
19363;DHT22;9817;50.80926400;5.16316200;2023-02-01T13:16:48;11.20;99.90
19363;DHT22;9817;50.80926400;5.16316200;2023-02-01T13:19:42;11.10;99.90
19363;DHT22;9817;50.80926400;5.16316200;2023-02-01T13:24:57;10.90;99.90
19363;DHT22;9817;50.80926400;5.16316200;2023-02-01T13:27:26;10.90;99.90
19363;DHT22;9817;50.80926400;5.16316200;2023-02-01T13:30:07;10.90;99.90
19363;DHT22;9817;50.80926400;5.16316200;2023-02-01T13:35:38;11.00;99.90
19363;DHT22;9817;50.80926400;5.16316200;2023-02-01T13:43:48;10.80;99.90
19363;DHT22;9817;50.80926400;5.16316200;2023-02-01T13:46:15;10.80;99.90
19363;DHT22;9817;50.80926400;5.16316200;2023-02-01T13:48:46;10.70;99.90
19363;DHT22;9817;50.80926400;5.16316200;2023-02-01T13:51:13;10.80;99.90
19363;DHT22;9817;50.80926400;5.16316200;2023-02-01T13:53:45;10.90;99.90
19363;DHT22;9817;50.80926400;5.16316200;2023-02-01T13:56:18;10.90;99.90
19363;DHT22;9817;50.80926400;5.16316200;2023-02-01T13:58:48;10.80;99.90
19363;DHT22;9817;50.80926400;5.16316200;2023-02-01T14:06:44;10.90;99.90
19363;DHT22;9817;50.80926400;5.16316200;2023-02-01T14:09:16;11.00;99.90
19363;DHT22;9817;50.80926400;5.16316200;2023-02-01T14:16:43;11.10;99.90
19363;DHT22;9817;50.80926400;5.16316200;2023-02-01T14:19:19;11.20;99.90
19363;DHT22;9817;50.80926400;5.16316200;2023-02-01T14:21:48;11.40;99.90
19363;DHT22;9817;50.80926400;5.16316200;2023-02-01T14:24:40;11.40;99.90
19363;DHT22;9817;50.80926400;5.16316200;2023-02-01T14:29:40;11.20;99.90
19363;DHT22;9817;50.80926400;5.16316200;2023-02-01T14:32:18;11.00;99.90
19363;DHT22;9817;50.80926400;5.16316200;2023-02-01T14:56:04;10.90;99.90
19363;DHT22;9817;50.80926400;5.16316200;2023-02-01T14:58:50;10.80;99.90
19363;DHT22;9817;50.80926400;5.16316200;2023-02-01T15:01:33;10.70;99.90
19363;DHT22;9817;50.80926400;5.16316200;2023-02-01T15:04:18;10.60;99.90
19363;DHT22;9817;50.80926400;5.16316200;2023-02-01T15:06:54;10.50;99.90
19363;DHT22;9817;50.80926400;5.16316200;2023-02-01T15:09:28;10.60;99.90
19363;DHT22;9817;50.80926400;5.16316200;2023-02-01T15:17:37;10.50;99.90
19363;DHT22;9817;50.80926400;5.16316200;2023-02-01T15:22:37;10.70;99.90
19363;DHT22;9817;50.80926400;5.16316200;2023-02-01T15:25:03;10.70;99.90
19363;DHT22;9817;50.80926400;5.16316200;2023-02-01T15:27:31;10.70;99.90
19363;DHT22;9817;50.80926400;5.16316200;2023-02-01T15:30:08;10.60;99.90
19363;DHT22;9817;50.80926400;5.16316200;2023-02-01T15:32:39;10.60;99.90
19363;DHT22;9817;50.80926400;5.16316200;2023-02-01T15:35:05;10.60;99.90
19363;DHT22;9817;50.80926400;5.16316200;2023-02-01T15:37:51;10.70;99.90
19363;DHT22;9817;50.80926400;5.16316200;2023-02-01T15:40:20;10.70;99.90
19363;DHT22;9817;50.80926400;5.16316200;2023-02-01T15:42:57;10.70;99.90
19363;DHT22;9817;50.80926400;5.16316200;2023-02-01T15:45:28;10.70;99.90
19363;DHT22;9817;50.80926400;5.16316200;2023-02-01T15:47:56;10.40;99.90
19363;DHT22;9817;50.80926400;5.16316200;2023-02-01T15:50:22;10.40;99.90
19363;DHT22;9817;50.80926400;5.16316200;2023-02-01T15:52:51;10.40;99.90
19363;DHT22;9817;50.80926400;5.16316200;2023-02-01T15:57:44;10.50;99.90
19363;DHT22;9817;50.80926400;5.16316200;2023-02-01T16:00:26;10.20;99.90
19363;DHT22;9817;50.80926400;5.16316200;2023-02-01T16:03:04;10.20;99.90
19363;DHT22;9817;50.80926400;5.16316200;2023-02-01T16:05:42;10.20;99.90
19363;DHT22;9817;50.80926400;5.16316200;2023-02-01T16:08:19;10.10;99.90
19363;DHT22;9817;50.80926400;5.16316200;2023-02-01T16:10:49;9.90;99.90
19363;DHT22;9817;50.80926400;5.16316200;2023-02-01T16:13:16;9.90;99.90
19363;DHT22;9817;50.80926400;5.16316200;2023-02-01T16:15:42;9.90;99.90
19363;DHT22;9817;50.80926400;5.16316200;2023-02-01T16:18:08;10.00;99.90
19363;DHT22;9817;50.80926400;5.16316200;2023-02-01T16:20:36;10.00;99.90
19363;DHT22;9817;50.80926400;5.16316200;2023-02-01T16:23:05;10.20;99.90
19363;DHT22;9817;50.80926400;5.16316200;2023-02-01T16:25:31;10.10;99.90
19363;DHT22;9817;50.80926400;5.16316200;2023-02-01T16:27:57;9.90;99.90
19363;DHT22;9817;50.80926400;5.16316200;2023-02-01T16:30:22;9.90;99.90
19363;DHT22;9817;50.80926400;5.16316200;2023-02-01T16:32:55;9.80;99.90
19363;DHT22;9817;50.80926400;5.16316200;2023-02-01T16:35:36;9.90;99.90